This is the latest recevied weather packets stored in our database for station/object SP3WRO-13. If no packets are shown the sender has not sent any weather packets the latest 10 day(s).
| Time | Temp. | Humidity | Pressure | Rain* | Wind** | Luminosity | Snow |
|---|---|---|---|---|---|---|---|
| 1788590822 | 15.56° C | 82% | 1008.6 hPa | 8.38 mm | - | 126 W/m² | - |
| 1788589922 | 16.11° C | 79% | 1008.4 hPa | 8.38 mm | - | 120 W/m² | - |
| 1788589022 | 16.11° C | 78% | 1008.3 hPa | 8.38 mm | - | 155 W/m² | - |
| 1788587222 | 15° C | 78% | 1008.1 hPa | 8.38 mm | - | 59 W/m² | - |
| 1788586322 | 15° C | 78% | 1008 hPa | 8.38 mm | - | 56 W/m² | - |
| 1788585422 | 15.56° C | 81% | 1007.8 hPa | 8.38 mm | - | 28 W/m² | - |
| 1788553015 | 17.22° C | 88% | 1001.8 hPa | 8.38 mm | - | - | - |
| 1788551215 | 17.78° C | 92% | 1002.2 hPa | 9.14 mm | - | - | - |
| 1788538612 | 17.22° C | 92% | 1000.6 hPa | 5.84 mm | - | 8 W/m² | - |
| 1788535912 | 23.33° C | 68% | 998.5 hPa | 1.02 mm | - | 88 W/m² | - |
| 1788535012 | 23.33° C | 69% | 999 hPa | 1.02 mm | - | 18 W/m² | - |
| 1788532311 | 23.33° C | 68% | 999.9 hPa | 1.02 mm | - | 178 W/m² | - |
| 1788531411 | 23.33° C | 71% | 1000 hPa | 1.02 mm | - | 67 W/m² | - |
| 1788528706 | 23.33° C | 71% | 1000.8 hPa | 1.02 mm | - | 91 W/m² | - |
| 1788527806 | 22.78° C | 72% | 1001 hPa | 1.02 mm | - | 151 W/m² | - |
| 1788524206 | 22.22° C | 74% | 1002.4 hPa | 1.02 mm | - | 171 W/m² | - |
| 1788523306 | 21.67° C | 74% | 1002.7 hPa | 1.02 mm | - | 126 W/m² | - |
| 1788521506 | 22.22° C | 73% | 1003.6 hPa | 1.02 mm | - | 381 W/m² | - |
| 1788520606 | 21.11° C | 75% | 1004.1 hPa | 1.02 mm | - | 260 W/m² | - |
| 1788519706 | 21.11° C | 77% | 1004.4 hPa | 1.02 mm | - | 104 W/m² | - |
| 1788518806 | 21.67° C | 76% | 1004.6 hPa | 1.02 mm | - | 109 W/m² | - |
| 1788517906 | 21.11° C | 77% | 1004.8 hPa | 1.02 mm | - | 405 W/m² | - |
| 1788517004 | 20° C | 80% | 1005.2 hPa | 1.02 mm | - | 195 W/m² | - |
| 1788514304 | 18.89° C | 83% | 1006.3 hPa | 1.02 mm | - | 86 W/m² | - |
| 1788513404 | 18.89° C | 83% | 1006.6 hPa | 1.02 mm | - | 74 W/m² | - |
* Rain latest 24 hours (hover to see other rain measurements)
** Current wind speed in m/s (hover to see current wind gust speed)